PWSweather.com
Personal Weather Stations
Station Observations
MAKAWAOWX1
Up Country Maui, Makawao, HI 96768

Up Country MauiMakawao, HI 96768

Lat: 20.856944, Lon: -156.3149667

Elevation: 1500

Station Type: Davis Vantage Pro

Latest ConditionsUpdated 8:30:05 PM HST Tuesday, Apr 24, 2018
Currently Today's Max Today's Min Today's Average
Temperature 66.3°F19.1°C 74.4°F23.6°C 64.8°F18.2°C 68.1°F20.1°C
Dew Point 62.6°F17.0°C 69.3°F20.7°C 61.0°F16.1°C 64.7°F18.2°C
Winds 2.3 mph E3.7 kmh E 15.0 mph E24.1 kmh E - 5.0 mph 8.0 kmh
Wind Gusts 11.5 mph18.5 kmh 26.5 mph42.6 kmh - -
Humidity 88% 95% 68% 89%
Pressure 30.02 in1016.6 mb 30.02 in1016.6 mb 29.95 in1014.2 mb -
Precipitation - 0.52 in13.2 mm - -
Hour Temp Dew Point Humidity Winds Wind Gusts Pressure Precip Precip Rate Daily Precip Total
08:30 PM 66.3°F19.1°C 62.6°F17.0°C 88% 2.3 mph E3.7 kmh E 11.5 mph18.5 kmh 30.02 in1016.6 mb - 0.00 in0.0 mm 0.52 in13.2 mm
08:20 PM 66.3°F19.1°C 62.6°F17.0°C 88% 5.8 mph E9.3 kmh E 15.0 mph24.1 kmh 30.02 in1016.6 mb - 0.00 in0.0 mm 0.52 in13.2 mm
08:10 PM 66.2°F19.0°C 62.5°F16.9°C 88% 6.9 mph E11.1 kmh E 20.7 mph33.3 kmh 30.02 in1016.6 mb - 0.00 in0.0 mm 0.52 in13.2 mm
08:00 PM 66.5°F19.2°C 63.2°F17.3°C 89% 5.8 mph E9.3 kmh E 16.1 mph25.9 kmh 30.01 in1016.3 mb - 0.00 in0.0 mm 0.52 in13.2 mm
07:50 PM 66.7°F19.3°C 63.0°F17.2°C 88% 5.8 mph ENE9.3 kmh ENE 19.6 mph31.5 kmh 30.01 in1016.3 mb - 0.00 in0.0 mm 0.52 in13.2 mm
07:40 PM 66.6°F19.2°C 62.9°F17.2°C 88% 2.3 mph E3.7 kmh E 3.5 mph5.6 kmh 30.00 in1015.9 mb - 0.00 in0.0 mm 0.52 in13.2 mm
07:30 PM 66.6°F19.2°C 63.3°F17.4°C 89% 4.6 mph ENE7.4 kmh ENE 12.7 mph20.4 kmh 30.00 in1015.9 mb - 0.00 in0.0 mm 0.52 in13.2 mm
07:20 PM 66.6°F19.2°C 62.9°F17.2°C 88% 3.5 mph E5.6 kmh E 11.5 mph18.5 kmh 30.00 in1015.9 mb - 0.00 in0.0 mm 0.52 in13.2 mm
07:10 PM 66.9°F19.4°C 63.2°F17.3°C 88% 5.8 mph E9.3 kmh E 11.5 mph18.5 kmh 30.00 in1015.9 mb - 0.00 in0.0 mm 0.52 in13.2 mm
07:00 PM 67.2°F19.6°C 63.5°F17.5°C 88% 1.2 mph E1.9 kmh E 8.1 mph13.0 kmh 30.00 in1015.9 mb - 0.00 in0.0 mm 0.52 in13.2 mm
06:50 PM 67.4°F19.7°C 63.4°F17.4°C 87% 8.1 mph E13.0 kmh E 16.1 mph25.9 kmh 29.99 in1015.6 mb - 0.00 in0.0 mm 0.52 in13.2 mm
06:40 PM 67.7°F19.8°C 63.1°F17.3°C 85% 3.5 mph E5.6 kmh E 6.9 mph11.1 kmh 29.99 in1015.6 mb - 0.00 in0.0 mm 0.52 in13.2 mm
06:30 PM 68.2°F20.1°C 62.9°F17.2°C 83% 3.5 mph E5.6 kmh E 8.1 mph13.0 kmh 29.99 in1015.6 mb - 0.00 in0.0 mm 0.52 in13.2 mm
06:20 PM 68.7°F20.4°C 63.0°F17.2°C 82% 3.5 mph E5.6 kmh E 10.4 mph16.7 kmh 29.99 in1015.6 mb - 0.00 in0.0 mm 0.52 in13.2 mm
06:10 PM 69.4°F20.8°C 63.3°F17.4°C 81% 8.1 mph E13.0 kmh E 17.3 mph27.8 kmh 29.98 in1015.2 mb - 0.00 in0.0 mm 0.52 in13.2 mm
06:00 PM 70.6°F21.4°C 64.5°F18.1°C 81% 6.9 mph E11.1 kmh E 16.1 mph25.9 kmh 29.98 in1015.2 mb - 0.00 in0.0 mm 0.52 in13.2 mm
05:50 PM 71.3°F21.8°C 63.4°F17.4°C 76% 8.1 mph E13.0 kmh E 9.2 mph14.8 kmh 29.98 in1015.2 mb - 0.00 in0.0 mm 0.52 in13.2 mm
05:40 PM 71.9°F22.2°C 63.2°F17.3°C 74% 6.9 mph E11.1 kmh E 11.5 mph18.5 kmh 29.98 in1015.2 mb - 0.00 in0.0 mm 0.52 in13.2 mm
05:30 PM 72.3°F22.4°C 63.2°F17.3°C 73% 8.1 mph E13.0 kmh E 16.1 mph25.9 kmh 29.96 in1014.6 mb - 0.00 in0.0 mm 0.52 in13.2 mm
05:20 PM 72.6°F22.6°C 62.6°F17.0°C 71% 6.9 mph E11.1 kmh E 11.5 mph18.5 kmh 29.96 in1014.6 mb - 0.00 in0.0 mm 0.52 in13.2 mm
05:10 PM 72.3°F22.4°C 62.0°F16.7°C 70% 4.6 mph E7.4 kmh E 11.5 mph18.5 kmh 29.96 in1014.6 mb - 0.00 in0.0 mm 0.52 in13.2 mm
05:00 PM 72.2°F22.3°C 61.0°F16.1°C 68% 12.7 mph E20.4 kmh E 21.9 mph35.2 kmh 29.96 in1014.6 mb - 0.00 in0.0 mm 0.52 in13.2 mm
04:50 PM 72.2°F22.3°C 63.1°F17.3°C 73% 5.8 mph E9.3 kmh E 12.7 mph20.4 kmh 29.95 in1014.2 mb - 0.00 in0.0 mm 0.52 in13.2 mm
04:40 PM 72.4°F22.4°C 63.6°F17.6°C 74% 8.1 mph E13.0 kmh E 13.8 mph22.2 kmh 29.95 in1014.2 mb - 0.01 in0.3 mm 0.52 in13.2 mm
04:30 PM 72.3°F22.4°C 65.4°F18.6°C 79% 9.2 mph E14.8 kmh E 11.5 mph18.5 kmh 29.95 in1014.2 mb - 0.01 in0.3 mm 0.52 in13.2 mm
04:20 PM 71.6°F22.0°C 64.0°F17.8°C 77% 4.6 mph E7.4 kmh E 10.4 mph16.7 kmh 29.95 in1014.2 mb - 0.01 in0.3 mm 0.52 in13.2 mm
04:10 PM 70.9°F21.6°C 64.7°F18.2°C 81% 5.8 mph E9.3 kmh E 11.5 mph18.5 kmh 29.95 in1014.2 mb - 0.01 in0.3 mm 0.52 in13.2 mm
04:00 PM 71.2°F21.8°C 66.1°F18.9°C 84% 5.8 mph ESE9.3 kmh ESE 11.5 mph18.5 kmh 29.95 in1014.2 mb - 0.01 in0.3 mm 0.52 in13.2 mm
03:50 PM 71.3°F21.8°C 66.2°F19.0°C 84% 8.1 mph E13.0 kmh E 13.8 mph22.2 kmh 29.95 in1014.2 mb - 0.02 in0.5 mm 0.52 in13.2 mm
03:40 PM 71.2°F21.8°C 66.5°F19.2°C 85% 8.1 mph E13.0 kmh E 18.4 mph29.6 kmh 29.95 in1014.2 mb - 0.01 in0.3 mm 0.51 in13.0 mm
03:30 PM 71.0°F21.7°C 67.6°F19.8°C 89% 1.2 mph E1.9 kmh E 10.4 mph16.7 kmh 29.95 in1014.2 mb - 0.01 in0.3 mm 0.51 in13.0 mm
03:20 PM 71.0°F21.7°C 67.6°F19.8°C 89% 9.2 mph E14.8 kmh E 18.4 mph29.6 kmh 29.95 in1014.2 mb - 0.01 in0.3 mm 0.51 in13.0 mm
03:10 PM 71.7°F22.1°C 67.3°F19.6°C 86% 15.0 mph ENE24.1 kmh ENE 18.4 mph29.6 kmh 29.95 in1014.2 mb - 0.01 in0.3 mm 0.51 in13.0 mm
03:00 PM 73.0°F22.8°C 68.3°F20.2°C 85% 9.2 mph E14.8 kmh E 18.4 mph29.6 kmh 29.95 in1014.2 mb - 0.01 in0.3 mm 0.51 in13.0 mm
02:50 PM 74.4°F23.6°C 67.8°F19.9°C 80% 3.5 mph E5.6 kmh E 9.2 mph14.8 kmh 29.96 in1014.6 mb - 0.00 in0.0 mm 0.50 in12.7 mm
02:40 PM 74.4°F23.6°C 67.1°F19.5°C 78% 9.2 mph E14.8 kmh E 19.6 mph31.5 kmh 29.96 in1014.6 mb - 0.00 in0.0 mm 0.50 in12.7 mm
02:30 PM 74.0°F23.3°C 67.8°F19.9°C 81% 2.3 mph ENE3.7 kmh ENE 2.3 mph3.7 kmh 29.96 in1014.6 mb - 0.00 in0.0 mm 0.50 in12.7 mm
02:20 PM 73.0°F22.8°C 67.8°F19.9°C 84% 1.2 mph E1.9 kmh E 6.9 mph11.1 kmh 29.96 in1014.6 mb - 0.00 in0.0 mm 0.50 in12.7 mm
02:10 PM 72.8°F22.7°C 67.0°F19.4°C 82% 8.1 mph E13.0 kmh E 11.5 mph18.5 kmh 29.97 in1014.9 mb - 0.00 in0.0 mm 0.50 in12.7 mm
02:00 PM 72.4°F22.4°C 68.3°F20.2°C 87% Calm Calm 12.7 mph20.4 kmh 29.97 in1014.9 mb - 0.00 in0.0 mm 0.50 in12.7 mm
01:50 PM 72.3°F22.4°C 67.9°F19.9°C 86% 1.2 mph E1.9 kmh E 3.5 mph5.6 kmh 29.97 in1014.9 mb - 0.00 in0.0 mm 0.50 in12.7 mm
01:40 PM 73.4°F23.0°C 68.6°F20.3°C 85% 5.8 mph E9.3 kmh E 26.5 mph42.6 kmh 29.98 in1015.2 mb - 0.01 in0.3 mm 0.50 in12.7 mm
01:30 PM 72.3°F22.4°C 68.2°F20.1°C 87% 2.3 mph ESE3.7 kmh ESE 6.9 mph11.1 kmh 29.97 in1014.9 mb - 0.02 in0.5 mm 0.50 in12.7 mm
01:20 PM 70.4°F21.3°C 66.7°F19.3°C 88% 10.4 mph E16.7 kmh E 13.8 mph22.2 kmh 29.98 in1015.2 mb - 0.03 in0.8 mm 0.50 in12.7 mm
01:10 PM 70.6°F21.4°C 67.2°F19.6°C 89% 15.0 mph E24.1 kmh E 19.6 mph31.5 kmh 29.99 in1015.6 mb - 0.04 in1.0 mm 0.50 in12.7 mm
01:00 PM 70.9°F21.6°C 68.4°F20.2°C 92% 2.3 mph E3.7 kmh E 11.5 mph18.5 kmh 29.98 in1015.2 mb - 0.04 in1.0 mm 0.50 in12.7 mm
12:50 PM 70.5°F21.4°C 68.4°F20.2°C 93% 4.6 mph ENE7.4 kmh ENE 10.4 mph16.7 kmh 29.99 in1015.6 mb - 0.05 in1.3 mm 0.50 in12.7 mm
12:40 PM 69.8°F21.0°C 67.4°F19.7°C 92% 9.2 mph ENE14.8 kmh ENE 15.0 mph24.1 kmh 29.99 in1015.6 mb - 0.04 in1.0 mm 0.49 in12.4 mm
12:30 PM 69.8°F21.0°C 67.0°F19.4°C 91% 5.8 mph E9.3 kmh E 13.8 mph22.2 kmh 30.00 in1015.9 mb - 0.04 in1.0 mm 0.49 in12.4 mm
12:20 PM 70.3°F21.3°C 67.8°F19.9°C 92% 3.5 mph ENE5.6 kmh ENE 18.4 mph29.6 kmh 30.00 in1015.9 mb - 0.02 in0.5 mm 0.47 in11.9 mm
12:10 PM 70.8°F21.6°C 68.1°F20.1°C 91% 9.2 mph E14.8 kmh E 16.1 mph25.9 kmh 30.00 in1015.9 mb - 0.01 in0.3 mm 0.46 in11.7 mm
12:00 PM 71.7°F22.1°C 69.3°F20.7°C 92% 2.3 mph E3.7 kmh E 5.8 mph9.3 kmh 30.00 in1015.9 mb - 0.03 in0.8 mm 0.46 in11.7 mm
11:50 AM 71.5°F21.9°C 69.1°F20.6°C 92% 11.5 mph E18.5 kmh E 19.6 mph31.5 kmh 30.00 in1015.9 mb - 0.03 in0.8 mm 0.45 in11.4 mm
11:40 AM 71.5°F21.9°C 69.0°F20.6°C 92% 2.3 mph ENE3.7 kmh ENE 17.3 mph27.8 kmh 30.00 in1015.9 mb - 0.03 in0.8 mm 0.45 in11.4 mm
11:30 AM 71.4°F21.9°C 68.6°F20.3°C 91% 9.2 mph E14.8 kmh E 13.8 mph22.2 kmh 30.00 in1015.9 mb - 0.04 in1.0 mm 0.45 in11.4 mm
11:20 AM 71.0°F21.7°C 69.2°F20.7°C 94% 1.2 mph E1.9 kmh E -- 30.00 in1015.9 mb - 0.04 in1.0 mm 0.45 in11.4 mm
11:10 AM 70.3°F21.3°C 68.8°F20.4°C 95% 1.2 mph E1.9 kmh E 1.2 mph1.9 kmh 30.00 in1015.9 mb - 0.05 in1.3 mm 0.45 in11.4 mm
11:00 AM 69.6°F20.9°C 67.5°F19.7°C 93% 4.6 mph ENE7.4 kmh ENE 11.5 mph18.5 kmh 30.01 in1016.3 mb - 0.03 in0.8 mm 0.43 in10.9 mm
10:50 AM 69.5°F20.8°C 67.7°F19.8°C 94% 2.3 mph ENE3.7 kmh ENE 12.7 mph20.4 kmh 30.01 in1016.3 mb - 0.02 in0.5 mm 0.42 in10.7 mm
10:40 AM 69.0°F20.6°C 67.2°F19.6°C 94% 4.6 mph E7.4 kmh E 11.5 mph18.5 kmh 30.01 in1016.3 mb - 0.03 in0.8 mm 0.42 in10.7 mm
10:30 AM 68.5°F20.3°C 66.7°F19.3°C 94% 1.2 mph E1.9 kmh E 15.0 mph24.1 kmh 30.01 in1016.3 mb - 0.04 in1.0 mm 0.41 in10.4 mm
10:20 AM 68.3°F20.2°C 66.5°F19.2°C 94% 10.4 mph ENE16.7 kmh ENE 19.6 mph31.5 kmh 30.02 in1016.6 mb - 0.04 in1.0 mm 0.41 in10.4 mm
10:10 AM 68.2°F20.1°C 66.4°F19.1°C 94% 12.7 mph ENE20.4 kmh ENE 13.8 mph22.2 kmh 30.02 in1016.6 mb - 0.04 in1.0 mm 0.40 in10.2 mm
10:00 AM 68.0°F20.0°C 66.2°F19.0°C 94% 6.9 mph ENE11.1 kmh ENE 12.7 mph20.4 kmh 30.02 in1016.6 mb - 0.05 in1.3 mm 0.40 in10.2 mm
09:50 AM 68.1°F20.1°C 66.3°F19.1°C 94% 8.1 mph ENE13.0 kmh ENE 12.7 mph20.4 kmh 30.02 in1016.6 mb - 0.06 in1.5 mm 0.40 in10.2 mm
09:40 AM 68.2°F20.1°C 66.1°F18.9°C 93% 4.6 mph E7.4 kmh E 10.4 mph16.7 kmh 30.02 in1016.6 mb - 0.07 in1.8 mm 0.39 in9.9 mm
09:30 AM 68.5°F20.3°C 66.7°F19.3°C 94% 2.3 mph E3.7 kmh E 11.5 mph18.5 kmh 30.02 in1016.6 mb - 0.06 in1.5 mm 0.37 in9.4 mm
09:20 AM 67.9°F19.9°C 66.1°F18.9°C 94% 2.3 mph E3.7 kmh E 12.7 mph20.4 kmh 30.02 in1016.6 mb - 0.07 in1.8 mm 0.37 in9.4 mm
09:10 AM 67.7°F19.8°C 65.9°F18.8°C 94% 2.3 mph E3.7 kmh E 11.5 mph18.5 kmh 30.02 in1016.6 mb - 0.07 in1.8 mm 0.36 in9.1 mm
09:00 AM 67.5°F19.7°C 65.7°F18.7°C 94% Calm Calm 4.6 mph7.4 kmh 30.02 in1016.6 mb - 0.07 in1.8 mm 0.35 in8.9 mm
08:50 AM 67.3°F19.6°C 65.8°F18.8°C 95% 4.6 mph ENE7.4 kmh ENE 11.5 mph18.5 kmh 30.01 in1016.3 mb - 0.10 in2.5 mm 0.34 in8.6 mm
08:40 AM 66.9°F19.4°C 65.5°F18.6°C 95% 1.2 mph ENE1.9 kmh ENE 8.1 mph13.0 kmh 30.01 in1016.3 mb - 0.09 in2.3 mm 0.33 in8.4 mm
08:30 AM 66.8°F19.3°C 65.3°F18.5°C 95% 8.1 mph NE13.0 kmh NE 18.4 mph29.6 kmh 30.01 in1016.3 mb - 0.08 in2.0 mm 0.31 in7.9 mm
08:20 AM 66.4°F19.1°C 64.9°F18.3°C 95% 3.5 mph ENE5.6 kmh ENE 16.1 mph25.9 kmh 30.01 in1016.3 mb - 0.09 in2.3 mm 0.30 in7.6 mm
08:10 AM 66.5°F19.2°C 65.0°F18.3°C 95% 12.7 mph ENE20.4 kmh ENE 19.6 mph31.5 kmh 30.01 in1016.3 mb - 0.09 in2.3 mm 0.29 in7.4 mm
08:00 AM 66.3°F19.1°C 64.8°F18.2°C 95% 1.2 mph ENE1.9 kmh ENE 11.5 mph18.5 kmh 30.01 in1016.3 mb - 0.09 in2.3 mm 0.28 in7.1 mm
07:50 AM 66.3°F19.1°C 64.8°F18.2°C 95% 6.9 mph ENE11.1 kmh ENE 15.0 mph24.1 kmh 30.01 in1016.3 mb - 0.08 in2.0 mm 0.25 in6.4 mm
07:40 AM 66.3°F19.1°C 64.8°F18.2°C 95% 4.6 mph E7.4 kmh E 6.9 mph11.1 kmh 30.01 in1016.3 mb - 0.08 in2.0 mm 0.24 in6.1 mm
07:30 AM 66.1°F18.9°C 64.6°F18.1°C 95% 3.5 mph E5.6 kmh E 11.5 mph18.5 kmh 30.00 in1015.9 mb - 0.07 in1.8 mm 0.23 in5.8 mm
07:20 AM 65.9°F18.8°C 64.4°F18.0°C 95% 3.5 mph ENE5.6 kmh ENE 9.2 mph14.8 kmh 30.01 in1016.3 mb - 0.06 in1.5 mm 0.21 in5.3 mm
07:10 AM 65.8°F18.8°C 64.3°F17.9°C 95% 1.2 mph ENE1.9 kmh ENE 13.8 mph22.2 kmh 30.01 in1016.3 mb - 0.05 in1.3 mm 0.20 in5.1 mm
07:00 AM 65.7°F18.7°C 64.2°F17.9°C 95% Calm Calm 10.4 mph16.7 kmh 30.00 in1015.9 mb - 0.04 in1.0 mm 0.19 in4.8 mm
06:50 AM 65.5°F18.6°C 64.0°F17.8°C 95% Calm Calm 9.2 mph14.8 kmh 29.99 in1015.6 mb - 0.05 in1.3 mm 0.17 in4.3 mm
06:40 AM 65.4°F18.6°C 63.9°F17.7°C 95% 2.3 mph E3.7 kmh E 9.2 mph14.8 kmh 29.99 in1015.6 mb - 0.08 in2.0 mm 0.17 in4.3 mm
06:30 AM 65.3°F18.5°C 63.5°F17.5°C 94% 1.2 mph NE1.9 kmh NE 3.5 mph5.6 kmh 29.99 in1015.6 mb - 0.09 in2.3 mm 0.16 in4.1 mm
06:20 AM 65.4°F18.6°C 63.6°F17.6°C 94% 2.3 mph ENE3.7 kmh ENE 8.1 mph13.0 kmh 29.98 in1015.2 mb - 0.09 in2.3 mm 0.15 in3.8 mm
06:10 AM 65.7°F18.7°C 64.2°F17.9°C 95% 2.3 mph E3.7 kmh E 6.9 mph11.1 kmh 29.98 in1015.2 mb - 0.09 in2.3 mm 0.15 in3.8 mm
06:00 AM 65.5°F18.6°C 63.7°F17.6°C 94% Calm Calm -- 29.98 in1015.2 mb - 0.09 in2.3 mm 0.15 in3.8 mm
05:50 AM 65.3°F18.5°C 63.2°F17.3°C 93% Calm Calm -- 29.98 in1015.2 mb - 0.07 in1.8 mm 0.13 in3.3 mm
05:40 AM 65.1°F18.4°C 63.0°F17.2°C 93% 5.8 mph ENE9.3 kmh ENE 11.5 mph18.5 kmh 29.98 in1015.2 mb - 0.04 in1.0 mm 0.10 in2.5 mm
05:30 AM 64.8°F18.2°C 62.4°F16.9°C 92% 8.1 mph ENE13.0 kmh ENE 12.7 mph20.4 kmh 29.98 in1015.2 mb - 0.01 in0.3 mm 0.07 in1.8 mm
05:20 AM 64.8°F18.2°C 62.1°F16.7°C 91% 2.3 mph ENE3.7 kmh ENE 9.2 mph14.8 kmh 29.97 in1014.9 mb - 0.01 in0.3 mm 0.06 in1.5 mm
05:10 AM 65.1°F18.4°C 62.4°F16.9°C 91% Calm Calm 1.2 mph1.9 kmh 29.97 in1014.9 mb - 0.02 in0.5 mm 0.06 in1.5 mm
05:00 AM 65.2°F18.4°C 62.8°F17.1°C 92% 1.2 mph ENE1.9 kmh ENE 10.4 mph16.7 kmh 29.97 in1014.9 mb - 0.03 in0.8 mm 0.06 in1.5 mm
04:50 AM 65.3°F18.5°C 62.9°F17.2°C 92% 5.8 mph E9.3 kmh E 16.1 mph25.9 kmh 29.96 in1014.6 mb - 0.03 in0.8 mm 0.06 in1.5 mm
04:40 AM 65.4°F18.6°C 63.0°F17.2°C 92% 6.9 mph ENE11.1 kmh ENE 11.5 mph18.5 kmh 29.96 in1014.6 mb - 0.03 in0.8 mm 0.06 in1.5 mm
04:30 AM 65.6°F18.7°C 63.2°F17.3°C 92% 5.8 mph ENE9.3 kmh ENE 10.4 mph16.7 kmh 29.95 in1014.2 mb - 0.03 in0.8 mm 0.06 in1.5 mm
04:20 AM 65.5°F18.6°C 62.8°F17.1°C 91% 3.5 mph E5.6 kmh E 12.7 mph20.4 kmh 29.95 in1014.2 mb - 0.02 in0.5 mm 0.05 in1.3 mm
04:10 AM 65.5°F18.6°C 63.1°F17.3°C 92% 6.9 mph ENE11.1 kmh ENE 18.4 mph29.6 kmh 29.95 in1014.2 mb - 0.01 in0.3 mm 0.04 in1.0 mm
04:00 AM 65.1°F18.4°C 62.8°F17.1°C 92% 6.9 mph E11.1 kmh E 10.4 mph16.7 kmh 29.95 in1014.2 mb - 0.00 in0.0 mm 0.03 in0.8 mm
03:50 AM 65.2°F18.4°C 62.8°F17.1°C 92% 3.5 mph ENE5.6 kmh ENE 6.9 mph11.1 kmh 29.95 in1014.2 mb - 0.01 in0.3 mm 0.03 in0.8 mm
03:40 AM 65.3°F18.5°C 62.6°F17.0°C 91% 3.5 mph E5.6 kmh E 4.6 mph7.4 kmh 29.95 in1014.2 mb - 0.01 in0.3 mm 0.03 in0.8 mm
03:30 AM 65.4°F18.6°C 62.4°F16.9°C 90% Calm Calm -- 29.95 in1014.2 mb - 0.01 in0.3 mm 0.03 in0.8 mm
03:20 AM 65.2°F18.4°C 61.9°F16.6°C 89% 8.1 mph E13.0 kmh E 11.5 mph18.5 kmh 29.95 in1014.2 mb - 0.01 in0.3 mm 0.03 in0.8 mm
03:10 AM 65.3°F18.5°C 62.2°F16.8°C 90% 6.9 mph E11.1 kmh E 11.5 mph18.5 kmh 29.95 in1014.2 mb - 0.01 in0.3 mm 0.03 in0.8 mm
03:00 AM 65.3°F18.5°C 62.3°F16.8°C 90% 5.8 mph E9.3 kmh E 11.5 mph18.5 kmh 29.96 in1014.6 mb - 0.01 in0.3 mm 0.03 in0.8 mm
02:50 AM 65.1°F18.4°C 61.8°F16.6°C 89% 5.8 mph E9.3 kmh E 12.7 mph20.4 kmh 29.96 in1014.6 mb - 0.00 in0.0 mm 0.02 in0.5 mm
02:40 AM 65.0°F18.3°C 61.7°F16.5°C 89% 2.3 mph E3.7 kmh E 11.5 mph18.5 kmh 29.95 in1014.2 mb - 0.00 in0.0 mm 0.02 in0.5 mm
02:30 AM 65.0°F18.3°C 61.7°F16.5°C 89% 2.3 mph E3.7 kmh E 8.1 mph13.0 kmh 29.96 in1014.6 mb - 0.00 in0.0 mm 0.02 in0.5 mm
02:20 AM 65.0°F18.3°C 61.7°F16.5°C 89% 1.2 mph ENE1.9 kmh ENE 11.5 mph18.5 kmh 29.96 in1014.6 mb - 0.00 in0.0 mm 0.02 in0.5 mm
02:10 AM 65.0°F18.3°C 62.0°F16.7°C 90% 3.5 mph ENE5.6 kmh ENE 13.8 mph22.2 kmh 29.97 in1014.9 mb - 0.00 in0.0 mm 0.02 in0.5 mm
02:00 AM 65.0°F18.3°C 61.7°F16.5°C 89% 4.6 mph ENE7.4 kmh ENE 8.1 mph13.0 kmh 29.97 in1014.9 mb - 0.00 in0.0 mm 0.02 in0.5 mm
01:50 AM 65.0°F18.3°C 62.0°F16.7°C 90% 5.8 mph E9.3 kmh E 11.5 mph18.5 kmh 29.97 in1014.9 mb - 0.01 in0.3 mm 0.02 in0.5 mm
01:40 AM 65.1°F18.4°C 61.8°F16.6°C 89% 5.8 mph ENE9.3 kmh ENE 11.5 mph18.5 kmh 29.98 in1015.2 mb - 0.01 in0.3 mm 0.02 in0.5 mm
01:30 AM 65.0°F18.3°C 61.7°F16.5°C 89% 1.2 mph ENE1.9 kmh ENE 10.4 mph16.7 kmh 29.99 in1015.6 mb - 0.01 in0.3 mm 0.02 in0.5 mm
01:20 AM 65.2°F18.4°C 62.5°F16.9°C 91% 4.6 mph ENE7.4 kmh ENE 9.2 mph14.8 kmh 29.99 in1015.6 mb - 0.01 in0.3 mm 0.02 in0.5 mm
01:10 AM 65.5°F18.6°C 63.1°F17.3°C 92% 9.2 mph ENE14.8 kmh ENE 11.5 mph18.5 kmh 29.99 in1015.6 mb - 0.02 in0.5 mm 0.02 in0.5 mm
01:00 AM 65.5°F18.6°C 63.1°F17.3°C 92% 5.8 mph ENE9.3 kmh ENE 16.1 mph25.9 kmh 29.99 in1015.6 mb - 0.02 in0.5 mm 0.02 in0.5 mm
12:50 AM 65.5°F18.6°C 63.1°F17.3°C 92% 6.9 mph ENE11.1 kmh ENE 10.4 mph16.7 kmh 29.99 in1015.6 mb - 0.03 in0.8 mm 0.02 in0.5 mm
12:40 AM 65.5°F18.6°C 63.4°F17.4°C 93% 5.8 mph ENE9.3 kmh ENE 11.5 mph18.5 kmh 30.00 in1015.9 mb - 0.03 in0.8 mm 0.01 in0.3 mm
12:30 AM 65.6°F18.7°C 63.5°F17.5°C 93% 8.1 mph ENE13.0 kmh ENE 12.7 mph20.4 kmh 30.00 in1015.9 mb - 0.03 in0.8 mm 0.01 in0.3 mm
12:20 AM 65.7°F18.7°C 63.6°F17.6°C 93% 8.1 mph E13.0 kmh E 18.4 mph29.6 kmh 30.00 in1015.9 mb - 0.03 in0.8 mm 0.01 in0.3 mm
12:10 AM 65.8°F18.8°C 63.7°F17.6°C 93% 2.3 mph ENE3.7 kmh ENE 11.5 mph18.5 kmh 30.00 in1015.9 mb - 0.02 in0.5 mm 0.05 in1.3 mm
12:00 AM 65.9°F18.8°C 63.5°F17.5°C 92% 2.3 mph ENE3.7 kmh ENE 9.2 mph14.8 kmh 30.01 in1016.3 mb - 0.03 in0.8 mm 0.03 in0.8 mm